KBOK

Brookings Airport

Brookings, Oregon, USA
METAR KBOK 210656Z AUTO 00000KT 10SM CLR 09/08 A3002 RMK AO2 SLP181 T00940083
Observed Flight Rules
May-21 @ 06:56 UTC (5 minutes ago) Visual Flight Rules
Visibility Clouds
10 miles
  • Clear skies
Temperatures Readings
Current 9°C / 48°F
Dewpoint 8°C / 46°F
Humidity 94%
Altimeter 30.02" Hg
Pressure 1018.1 hPa
Elevation 140
METAR KBOK 210656Z AUTO 00000KT 10SM CLR 09/08 A3002 RMK AO2 SLP181 T00940083
Observed Flight Rules
May-21 @ 06:56 UTC
(5 minutes ago)
VFR
Clouds
  • Clear skies
Temperature Dewpoint
9°C / 48°F 8°C / 46°F
Humidity Altimeter Pressure
94% 30.02" Hg 1018.1 hPa